Time;durP1;ratioP1;P1;durP2;ratioP2;P2;SDS_P1;SDS_P2;PMS_P1;PMS_P2;Temp;Humidity;BMP_temperature;BMP_pressure;BME280_temperature;BME280_humidity;BME280_pressure;Samples;Min_cycle;Max_cycle;Signal;HPM_P1;HPM_P2
2021/06/16 00:00:33;;;;;;;14.13;11.23;;;18.80;99.90;;;;;;5114427;27;20412;-56
2021/06/16 00:03:00;;;;;;;12.33;11.10;;;19.00;99.90;;;;;;5116263;28;20424;-55
2021/06/16 00:05:29;;;;;;;21.03;11.40;;;18.90;99.90;;;;;;5117268;28;20591;-54
2021/06/16 00:07:56;;;;;;;11.13;10.03;;;19.00;99.90;;;;;;5117818;28;20426;-56
2021/06/16 00:10:26;;;;;;;12.53;11.33;;;18.90;99.90;;;;;;5108254;28;20443;-54
2021/06/16 00:12:54;;;;;;;10.43;9.37;;;18.70;99.90;;;;;;5107196;28;20445;-54
2021/06/16 00:15:33;;;;;;;11.63;10.33;;;18.50;99.90;;;;;;5115699;28;20506;-54
2021/06/16 00:18:01;;;;;;;12.27;10.97;;;18.50;99.90;;;;;;5097113;28;20473;-57
2021/06/16 00:20:28;;;;;;;12.90;11.60;;;18.40;99.90;;;;;;5096903;28;20456;-56
2021/06/16 00:22:56;;;;;;;13.17;11.23;;;18.30;99.90;;;;;;5101582;28;20405;-54
2021/06/16 00:25:24;;;;;;;15.47;11.03;;;18.30;99.90;;;;;;5111192;28;20769;-57
2021/06/16 00:27:52;;;;;;;11.87;10.77;;;18.30;99.90;;;;;;5108011;28;20467;-53
2021/06/16 00:30:19;;;;;;;12.17;10.90;;;18.30;99.90;;;;;;5113369;28;20426;-53
2021/06/16 00:32:46;;;;;;;12.30;10.43;;;18.40;99.90;;;;;;5109535;28;20764;-57
2021/06/16 00:35:19;;;;;;;16.93;11.00;;;18.40;99.90;;;;;;5099081;28;20461;-55
2021/06/16 00:37:48;;;;;;;13.47;12.20;;;18.40;99.90;;;;;;5102976;28;20420;-55
2021/06/16 00:40:17;;;;;;;14.37;10.67;;;18.30;99.90;;;;;;5116960;28;20421;-55
2021/06/16 00:42:44;;;;;;;12.50;11.30;;;18.20;99.90;;;;;;5116855;28;20424;-54
2021/06/16 00:45:12;;;;;;;11.63;9.77;;;18.20;99.90;;;;;;5112276;28;20528;-54
2021/06/16 00:47:40;;;;;;;13.67;11.03;;;18.10;99.90;;;;;;5117629;28;20498;-55
2021/06/16 00:50:08;;;;;;;15.73;11.53;;;18.20;99.90;;;;;;5116939;28;20443;-56
2021/06/16 00:52:36;;;;;;;16.97;11.47;;;18.10;99.90;;;;;;5110164;28;20618;-53
2021/06/16 00:55:05;;;;;;;12.60;11.03;;;18.10;99.90;;;;;;5117167;28;20452;-55
2021/06/16 00:57:33;;;;;;;18.40;10.40;;;18.10;99.90;;;;;;5116886;28;20441;-53
2021/06/16 01:00:03;;;;;;;11.73;10.53;;;18.20;99.90;;;;;;5116999;28;20415;-53
2021/06/16 01:02:36;;;;;;;14.83;13.03;;;18.00;99.90;;;;;;5117332;28;20423;-54
2021/06/16 01:05:06;;;;;;;11.70;10.50;;;17.90;99.90;;;;;;5116765;28;20531;-52
2021/06/16 01:07:40;;;;;;;11.60;10.53;;;17.70;99.90;;;;;;5112610;28;20433;-53
2021/06/16 01:10:12;;;;;;;15.20;12.83;;;17.70;99.90;;;;;;5105555;28;20419;-54
2021/06/16 01:13:07;;;;;;;13.23;11.83;;;17.70;99.90;;;;;;5106247;28;20420;-55
2021/06/16 01:15:57;;;;;;;12.50;10.90;;;17.70;99.90;;;;;;5110936;28;20509;-55
2021/06/16 01:18:26;;;;;;;12.00;10.10;;;17.70;99.90;;;;;;5091843;28;20438;-54
2021/06/16 01:20:56;;;;;;;13.93;12.53;;;17.70;99.90;;;;;;5101366;28;20802;-54
2021/06/16 01:23:44;;;;;;;14.93;13.43;;;17.70;99.90;;;;;;5117204;28;20457;-54
2021/06/16 01:26:47;;;;;;;15.33;13.83;;;17.80;99.90;;;;;;5095351;28;20499;-52
2021/06/16 01:29:33;;;;;;;14.33;12.83;;;17.70;99.90;;;;;;5082464;28;20449;-54
2021/06/16 01:32:01;;;;;;;14.30;12.90;;;17.80;99.90;;;;;;5097645;28;20764;-55
2021/06/16 01:34:29;;;;;;;15.57;13.00;;;17.80;99.90;;;;;;5109496;28;20650;-56
2021/06/16 01:36:59;;;;;;;15.63;13.80;;;17.90;99.90;;;;;;5110403;28;20800;-52
2021/06/16 01:39:29;;;;;;;15.87;12.57;;;17.90;99.90;;;;;;5110645;28;20817;-53
2021/06/16 01:41:59;;;;;;;14.47;12.13;;;17.90;99.90;;;;;;5104698;28;20500;-53
2021/06/16 01:44:28;;;;;;;15.87;14.23;;;18.00;99.90;;;;;;5108959;28;20450;-54
2021/06/16 01:46:55;;;;;;;18.23;13.40;;;18.20;99.90;;;;;;5116365;28;20678;-54
2021/06/16 01:49:25;;;;;;;13.33;11.93;;;18.40;99.90;;;;;;5111481;28;20422;-55
2021/06/16 01:51:54;;;;;;;13.77;12.40;;;18.30;99.90;;;;;;5117443;28;20419;-54
2021/06/16 01:54:24;;;;;;;16.53;12.73;;;18.20;99.90;;;;;;5113496;28;20625;-53
2021/06/16 01:56:53;;;;;;;12.77;11.33;;;18.50;99.90;;;;;;5115949;28;20821;-55
2021/06/16 01:59:21;;;;;;;19.53;14.20;;;18.50;99.90;;;;;;5115293;28;20741;-56
2021/06/16 02:01:50;;;;;;;15.90;14.27;;;18.70;99.90;;;;;;5113701;28;20747;-57
2021/06/16 02:04:18;;;;;;;16.73;12.90;;;18.80;99.90;;;;;;5114400;28;20645;-52
2021/06/16 02:07:03;;;;;;;15.97;14.27;;;18.80;99.90;;;;;;5117162;28;20420;-56
2021/06/16 02:09:32;;;;;;;16.17;14.57;;;18.80;99.90;;;;;;5120241;28;20490;-56
2021/06/16 02:12:00;;;;;;;13.97;12.57;;;18.50;99.90;;;;;;5101959;28;20446;-53
2021/06/16 02:14:28;;;;;;;15.83;14.23;;;18.60;99.90;;;;;;5114697;28;20472;-52
2021/06/16 02:17:01;;;;;;;18.27;13.97;;;18.30;99.90;;;;;;5106342;28;20504;-54
2021/06/16 02:19:31;;;;;;;15.10;13.50;;;18.40;99.90;;;;;;5106330;28;20415;-54
2021/06/16 02:21:59;;;;;;;18.70;13.30;;;18.20;99.90;;;;;;5115707;28;20486;-53
2021/06/16 02:24:27;;;;;;;15.67;14.07;;;18.20;99.90;;;;;;5118338;28;20445;-55
2021/06/16 02:26:54;;;;;;;14.53;13.17;;;18.10;99.90;;;;;;5100416;28;20420;-52
2021/06/16 02:29:27;;;;;;;14.70;13.30;;;18.10;99.90;;;;;;5107691;28;20445;-52
2021/06/16 02:31:54;;;;;;;14.87;13.20;;;18.00;99.90;;;;;;5102080;28;20873;-53
2021/06/16 02:34:23;;;;;;;16.10;14.53;;;19.20;99.90;;;;;;5112089;28;20514;-52
2021/06/16 02:36:55;;;;;;;17.13;14.80;;;18.00;99.90;;;;;;5103766;28;20607;-52
2021/06/16 02:39:34;;;;;;;17.13;14.90;;;17.90;99.90;;;;;;5108026;28;20419;-54
2021/06/16 02:42:04;;;;;;;17.73;13.80;;;17.70;99.90;;;;;;5112980;28;20476;-54
2021/06/16 02:44:32;;;;;;;18.03;16.00;;;17.80;99.90;;;;;;5106022;28;20448;-55
2021/06/16 02:47:00;;;;;;;16.13;14.10;;;17.70;99.90;;;;;;5105891;28;20773;-55
2021/06/16 02:49:45;;;;;;;16.80;15.10;;;17.60;99.90;;;;;;5112371;28;20441;-56
2021/06/16 02:52:16;;;;;;;17.27;15.57;;;17.50;99.90;;;;;;5100274;28;20420;-51
2021/06/16 02:54:46;;;;;;;18.67;16.80;;;17.40;99.90;;;;;;5117961;28;20446;-52
2021/06/16 02:57:19;;;;;;;19.00;15.63;;;17.50;99.90;;;;;;5107830;28;20636;-54
2021/06/16 02:59:48;;;;;;;16.00;14.50;;;17.40;99.90;;;;;;5112786;28;20441;-56
2021/06/16 03:02:16;;;;;;;18.30;16.40;;;17.40;99.90;;;;;;5111480;28;20449;-55
2021/06/16 03:04:45;;;;;;;21.10;16.87;;;17.40;99.90;;;;;;5100628;28;20471;-55
2021/06/16 03:07:14;;;;;;;17.17;15.57;;;17.30;99.90;;;;;;5109951;28;20420;-52
2021/06/16 03:09:44;;;;;;;15.83;14.10;;;17.40;99.90;;;;;;5102105;27;20452;-52
2021/06/16 03:12:13;;;;;;;15.70;14.30;;;17.50;99.90;;;;;;5103753;28;20441;-53
2021/06/16 03:14:41;;;;;;;19.57;14.93;;;17.50;99.90;;;;;;5118430;28;20755;-52
2021/06/16 03:17:11;;;;;;;16.77;15.27;;;17.60;99.90;;;;;;5103412;28;20436;-53
2021/06/16 03:19:39;;;;;;;16.80;15.10;;;17.60;99.90;;;;;;5119157;28;20874;-53
2021/06/16 03:22:09;;;;;;;16.33;13.67;;;16.60;99.90;;;;;;5104361;28;20569;-54
2021/06/16 03:24:37;;;;;;;18.20;15.37;;;17.90;99.90;;;;;;5116897;28;20580;-55
2021/06/16 03:27:05;;;;;;;17.10;15.20;;;18.00;99.90;;;;;;5117879;28;20445;-52
2021/06/16 03:29:33;;;;;;;17.40;15.67;;;18.10;99.90;;;;;;5107694;28;20446;-55
2021/06/16 03:32:03;;;;;;;19.70;14.23;;;18.30;99.90;;;;;;5106201;28;20442;-58
2021/06/16 03:34:30;;;;;;;15.27;13.70;;;18.40;99.90;;;;;;5100421;28;20747;-56
2021/06/16 03:37:01;;;;;;;16.20;13.17;;;18.60;99.90;;;;;;5110532;28;20470;-56
2021/06/16 03:39:30;;;;;;;15.37;13.87;;;18.50;99.90;;;;;;5100722;27;20425;-52
2021/06/16 03:41:57;;;;;;;15.90;14.00;;;18.50;99.90;;;;;;5103757;27;20423;-53
2021/06/16 03:44:26;;;;;;;13.43;11.93;;;18.40;99.90;;;;;;5116502;28;20430;-56
2021/06/16 03:46:53;;;;;;;15.10;13.50;;;18.40;99.90;;;;;;5118923;28;20428;-59
2021/06/16 03:49:22;;;;;;;12.90;11.70;;;18.40;99.90;;;;;;5117434;28;20419;-56
2021/06/16 03:51:50;;;;;;;15.40;13.77;;;18.50;99.90;;;;;;5118419;28;20491;-53
2021/06/16 03:54:20;;;;;;;14.60;13.07;;;18.40;99.90;;;;;;5116992;28;20444;-55
2021/06/16 03:56:48;;;;;;;14.17;12.77;;;18.40;99.90;;;;;;5115356;28;20455;-53
2021/06/16 03:59:15;;;;;;;15.07;13.57;;;18.30;99.90;;;;;;5117196;28;21036;-54
2021/06/16 04:01:44;;;;;;;14.70;12.60;;;18.50;99.90;;;;;;5118420;28;20455;-54
2021/06/16 04:04:12;;;;;;;13.70;12.37;;;18.70;99.90;;;;;;5114911;28;20449;-55
2021/06/16 04:06:46;;;;;;;14.23;12.80;;;19.00;99.90;;;;;;5103687;28;20509;-54
2021/06/16 04:09:14;;;;;;;13.87;12.57;;;19.20;99.90;;;;;;5103623;28;20438;-52
2021/06/16 04:11:43;;;;;;;16.00;14.50;;;19.30;99.90;;;;;;5099236;28;20435;-54
2021/06/16 04:14:11;;;;;;;15.30;13.90;;;19.10;99.90;;;;;;5106208;28;20731;-56
2021/06/16 04:16:42;;;;;;;16.30;13.87;;;19.10;99.90;;;;;;5115714;28;20500;-55
2021/06/16 04:19:10;;;;;;;17.90;16.00;;;19.20;99.90;;;;;;5118527;28;20715;-56
2021/06/16 04:21:38;;;;;;;16.37;14.27;;;19.40;99.90;;;;;;5104879;28;20462;-56
2021/06/16 04:24:05;;;;;;;17.03;15.43;;;19.70;99.90;;;;;;5102784;28;20421;-57
2021/06/16 04:26:32;;;;;;;12.80;11.60;;;20.20;99.90;;;;;;5118663;28;20442;-55
2021/06/16 04:28:59;;;;;;;14.67;13.17;;;20.70;99.90;;;;;;5117360;28;20422;-54
2021/06/16 04:31:26;;;;;;;16.57;14.37;;;21.10;99.90;;;;;;5107623;28;20436;-53
2021/06/16 04:33:54;;;;;;;13.43;11.63;;;19.90;99.90;;;;;;5110503;28;20449;-52
2021/06/16 04:36:21;;;;;;;18.80;16.90;;;21.10;99.90;;;;;;5098756;28;20615;-53
2021/06/16 04:38:48;;;;;;;15.67;14.00;;;19.90;99.90;;;;;;5100671;28;20492;-54
2021/06/16 04:41:15;;;;;;;16.53;15.00;;;21.50;99.90;;;;;;5110000;28;20536;-54
2021/06/16 04:43:42;;;;;;;19.53;17.77;;;21.60;99.90;;;;;;5109875;28;20424;-55
2021/06/16 04:46:09;;;;;;;15.00;13.50;;;21.40;99.90;;;;;;5116903;28;20443;-54
2021/06/16 04:48:40;;;;;;;18.00;15.17;;;21.40;99.90;;;;;;5116239;28;20440;-54
2021/06/16 04:51:08;;;;;;;21.67;19.20;;;21.50;99.90;;;;;;5113501;28;20618;-53
2021/06/16 04:53:35;;;;;;;21.67;19.67;;;21.80;99.90;;;;;;5117275;28;20452;-54
2021/06/16 04:56:03;;;;;;;27.53;25.13;;;22.00;99.90;;;;;;5115904;28;20474;-54
2021/06/16 04:58:30;;;;;;;26.93;24.33;;;22.10;99.90;;;;;;5115743;28;20541;-55
2021/06/16 05:00:57;;;;;;;25.50;22.83;;;21.90;99.90;;;;;;5114938;28;20418;-54
2021/06/16 05:03:24;;;;;;;23.00;21.03;;;21.90;99.90;;;;;;5114978;28;20594;-55
2021/06/16 05:05:52;;;;;;;21.00;18.90;;;21.70;99.90;;;;;;5114641;28;20455;-57
2021/06/16 05:08:19;;;;;;;18.40;16.63;;;21.50;99.90;;;;;;5115401;28;20426;-56
2021/06/16 05:10:46;;;;;;;15.33;14.03;;;21.40;99.90;;;;;;5107495;28;20807;-55
2021/06/16 05:13:13;;;;;;;16.17;12.30;;;21.20;99.90;;;;;;5110262;28;20941;-55
2021/06/16 05:15:40;;;;;;;11.90;10.40;;;21.00;99.90;;;;;;5101580;28;20511;-54
2021/06/16 05:18:08;;;;;;;11.07;9.97;;;20.70;99.90;;;;;;5104505;28;20456;-55
2021/06/16 05:20:35;;;;;;;11.30;9.70;;;20.40;99.90;;;;;;5099615;28;20517;-53
2021/06/16 05:23:03;;;;;;;11.27;10.30;;;20.50;99.90;;;;;;5105972;28;20419;-55
2021/06/16 05:25:30;;;;;;;12.80;10.43;;;20.90;99.90;;;;;;5098911;28;20417;-55
2021/06/16 05:27:57;;;;;;;10.20;9.07;;;21.20;99.90;;;;;;5116269;28;20405;-55
2021/06/16 05:30:25;;;;;;;10.93;9.73;;;21.60;99.90;;;;;;5100791;28;20455;-55
2021/06/16 05:32:52;;;;;;;10.77;9.70;;;21.80;99.90;;;;;;5096755;28;20448;-55
2021/06/16 05:35:19;;;;;;;9.90;8.93;;;22.20;99.90;;;;;;5110119;28;20749;-54
2021/06/16 05:37:47;;;;;;;10.53;9.47;;;22.10;99.90;;;;;;5096062;28;20411;-56
2021/06/16 05:40:15;;;;;;;10.13;8.17;;;22.30;99.90;;;;;;5088752;28;21582;-55
2021/06/16 05:42:42;;;;;;;12.00;9.87;;;22.50;99.90;;;;;;5095828;28;20441;-56
2021/06/16 05:45:10;;;;;;;10.17;9.30;;;22.80;99.90;;;;;;5112877;28;20444;-55
2021/06/16 05:47:38;;;;;;;9.53;8.63;;;22.90;99.90;;;;;;5115032;28;20458;-55
2021/06/16 05:50:05;;;;;;;9.57;8.77;;;23.00;99.90;;;;;;5118228;28;20709;-53
2021/06/16 05:52:33;;;;;;;12.30;11.00;;;22.80;99.90;;;;;;5118650;28;20445;-53
2021/06/16 05:55:01;;;;;;;15.83;11.10;;;22.50;99.90;;;;;;5119917;28;20416;-55
2021/06/16 05:57:28;;;;;;;10.47;9.67;;;22.30;99.90;;;;;;5120054;28;20487;-55
2021/06/16 05:59:55;;;;;;;12.93;10.50;;;22.20;99.90;;;;;;5118708;28;20426;-54
2021/06/16 06:02:22;;;;;;;11.37;10.27;;;22.30;99.90;;;;;;5112861;28;20463;-56
2021/06/16 06:04:49;;;;;;;11.17;10.20;;;22.70;99.90;;;;;;5119580;28;20433;-54
2021/06/16 06:07:17;;;;;;;14.20;11.50;;;22.90;99.90;;;;;;5112116;28;20788;-56
2021/06/16 06:09:44;;;;;;;11.30;10.20;;;23.10;99.90;;;;;;5115585;28;20452;-55
2021/06/16 06:12:11;;;;;;;11.40;10.27;;;23.20;99.90;;;;;;5110301;28;20457;-54
2021/06/16 06:14:39;;;;;;;13.17;11.93;;;23.00;99.90;;;;;;5119511;28;20451;-53
2021/06/16 06:17:06;;;;;;;11.77;10.77;;;24.00;99.30;;;;;;5117607;28;20687;-55
2021/06/16 06:19:34;;;;;;;12.30;11.00;;;24.60;98.20;;;;;;5119941;28;20661;-52
2021/06/16 06:22:01;;;;;;;10.20;9.33;;;24.90;97.40;;;;;;5118418;28;20438;-55
2021/06/16 06:24:28;;;;;;;12.50;11.27;;;25.10;97.70;;;;;;5120512;28;20788;-55
2021/06/16 06:26:55;;;;;;;12.50;11.20;;;25.40;96.60;;;;;;5117561;28;20475;-54
2021/06/16 06:29:23;;;;;;;12.20;11.20;;;26.30;94.80;;;;;;5111967;28;20492;-53
2021/06/16 06:31:50;;;;;;;11.50;10.30;;;26.50;94.30;;;;;;5105181;28;20740;-56
2021/06/16 06:34:17;;;;;;;13.40;12.30;;;26.50;94.10;;;;;;5103030;28;20446;-54
2021/06/16 06:36:44;;;;;;;12.07;11.10;;;26.00;95.30;;;;;;5102899;28;20474;-55
2021/06/16 06:39:12;;;;;;;12.60;11.40;;;26.00;95.20;;;;;;5099502;28;20450;-55
2021/06/16 06:41:39;;;;;;;12.17;10.90;;;26.20;94.90;;;;;;5108481;28;20781;-55
2021/06/16 06:44:06;;;;;;;13.90;12.70;;;26.00;95.10;;;;;;5109233;28;20442;-55
2021/06/16 06:46:33;;;;;;;16.40;12.20;;;25.60;95.40;;;;;;5119655;28;20446;-55
2021/06/16 06:49:00;;;;;;;14.27;12.97;;;25.90;95.30;;;;;;5117273;28;20437;-55
2021/06/16 06:51:27;;;;;;;13.37;12.10;;;26.00;95.50;;;;;;5107755;28;20742;-55
2021/06/16 06:53:54;;;;;;;12.60;11.50;;;26.00;95.00;;;;;;5118009;28;20496;-55
2021/06/16 06:56:22;;;;;;;13.00;11.60;;;26.00;95.40;;;;;;5115415;28;20478;-54
2021/06/16 06:58:50;;;;;;;15.57;13.97;;;26.80;94.10;;;;;;5117573;28;20493;-56
2021/06/16 07:01:17;;;;;;;14.90;13.50;;;29.20;90.90;;;;;;5116024;27;20780;-57
2021/06/16 07:03:46;;;;;;;15.10;13.73;;;30.30;86.20;;;;;;5114992;28;20469;-55
2021/06/16 07:06:14;;;;;;;19.60;18.10;;;30.50;83.90;;;;;;5117368;27;20456;-54
2021/06/16 07:08:41;;;;;;;17.07;15.40;;;30.70;81.80;;;;;;5122434;27;20509;-55
2021/06/16 07:11:08;;;;;;;16.70;15.50;;;32.70;76.60;;;;;;5104389;28;20474;-54
2021/06/16 07:13:35;;;;;;;19.80;17.70;;;34.10;71.60;;;;;;5115691;28;20472;-54
2021/06/16 07:16:09;;;;;;;17.50;16.10;;;34.80;66.70;;;;;;5119648;28;20501;-54
2021/06/16 07:18:37;;;;;;;17.33;15.90;;;35.70;61.80;;;;;;5108708;28;20445;-53
2021/06/16 07:21:04;;;;;;;15.30;14.20;;;36.50;58.90;;;;;;5110913;28;20621;-55
2021/06/16 07:23:32;;;;;;;14.47;13.53;;;35.10;58.70;;;;;;5112943;28;20454;-55
2021/06/16 07:25:59;;;;;;;15.83;14.77;;;33.20;64.20;;;;;;5118328;28;21011;-54
2021/06/16 07:28:27;;;;;;;13.97;12.87;;;31.80;68.20;;;;;;5120365;28;20441;-54
2021/06/16 07:30:53;;;;;;;14.13;13.13;;;30.20;73.90;;;;;;5113655;28;20765;-55
2021/06/16 07:33:21;;;;;;;17.80;16.40;;;29.10;78.00;;;;;;5109116;28;20487;-54
2021/06/16 07:35:50;;;;;;;15.80;14.60;;;28.60;80.60;;;;;;5111740;28;20771;-55
2021/06/16 07:38:20;;;;;;;23.00;18.23;;;28.40;83.20;;;;;;5118031;28;20461;-56
2021/06/16 07:40:47;;;;;;;16.37;15.17;;;28.60;82.80;;;;;;5104822;28;20486;-54
2021/06/16 07:43:15;;;;;;;16.67;15.37;;;28.70;82.70;;;;;;5111444;28;20682;-55
2021/06/16 07:45:45;;;;;;;15.70;14.57;;;29.50;81.10;;;;;;5117158;28;20437;-55
2021/06/16 07:48:13;;;;;;;16.70;15.40;;;30.60;76.20;;;;;;5117946;28;20824;-55
2021/06/16 07:50:42;;;;;;;17.50;16.27;;;30.80;77.00;;;;;;5115751;28;20438;-56
2021/06/16 07:53:09;;;;;;;17.87;16.47;;;30.90;75.90;;;;;;5115472;28;20442;-55
2021/06/16 07:55:39;;;;;;;18.77;17.27;;;31.60;73.40;;;;;;5116949;28;20487;-56
2021/06/16 07:58:07;;;;;;;20.47;18.77;;;30.00;71.90;;;;;;5114766;28;20934;-56
2021/06/16 08:00:35;;;;;;;15.53;14.23;;;32.10;70.60;;;;;;5114911;28;20442;-55
2021/06/16 08:03:03;;;;;;;18.77;17.17;;;32.20;69.80;;;;;;5116127;28;20417;-55
2021/06/16 08:05:31;;;;;;;19.70;18.00;;;32.80;69.00;;;;;;5108604;28;20448;-55
2021/06/16 08:07:59;;;;;;;16.77;15.67;;;33.90;66.40;;;;;;5116949;28;20445;-56
2021/06/16 08:10:30;;;;;;;18.40;17.10;;;34.60;62.00;;;;;;5114067;28;20518;-55
2021/06/16 08:12:58;;;;;;;17.23;16.03;;;34.00;63.20;;;;;;5116895;28;20503;-56
2021/06/16 08:15:27;;;;;;;17.10;15.93;;;34.50;62.10;;;;;;5117323;28;20449;-54
2021/06/16 08:17:54;;;;;;;16.40;15.10;;;34.20;62.30;;;;;;5117481;28;20485;-55
2021/06/16 08:20:22;;;;;;;17.97;16.50;;;34.00;61.40;;;;;;5116790;28;20478;-56
2021/06/16 08:22:49;;;;;;;17.20;15.90;;;32.60;65.80;;;;;;5115709;28;20503;-54
2021/06/16 08:25:16;;;;;;;17.17;15.77;;;33.20;65.20;;;;;;5116172;28;20475;-58
2021/06/16 08:27:43;;;;;;;16.10;14.77;;;34.20;61.60;;;;;;5109133;28;20780;-57
2021/06/16 08:30:12;;;;;;;15.67;14.50;;;34.00;58.90;;;;;;5115579;28;20439;-55
2021/06/16 08:32:43;;;;;;;17.07;15.80;;;33.30;63.00;;;;;;5106278;28;21015;-54
2021/06/16 08:35:12;;;;;;;17.17;15.73;;;35.30;57.80;;;;;;5105179;28;20446;-56
2021/06/16 08:37:39;;;;;;;17.57;16.30;;;37.00;54.30;;;;;;5114900;28;20856;-54
2021/06/16 08:40:07;;;;;;;14.90;14.00;;;39.00;50.60;;;;;;5117910;28;20450;-54
2021/06/16 08:42:34;;;;;;;15.73;14.73;;;39.80;48.60;;;;;;5103653;28;20430;-57
2021/06/16 08:45:04;;;;;;;15.83;14.70;;;37.20;51.60;;;;;;5116769;28;21744;-55
2021/06/16 08:47:33;;;;;;;15.23;14.33;;;35.00;55.70;;;;;;5117153;28;20457;-56
2021/06/16 08:50:06;;;;;;;16.60;15.27;;;33.00;58.90;;;;;;5115404;28;20441;-55
2021/06/16 08:52:34;;;;;;;15.80;14.43;;;31.70;62.30;;;;;;5113331;28;20442;-58
2021/06/16 08:55:06;;;;;;;16.93;15.30;;;31.30;64.20;;;;;;5116715;28;20474;-56
2021/06/16 08:57:33;;;;;;;15.87;14.77;;;31.30;65.00;;;;;;5111534;28;20732;-57
2021/06/16 09:00:03;;;;;;;16.80;15.07;;;32.00;62.90;;;;;;5110223;28;20437;-58
2021/06/16 09:02:31;;;;;;;16.13;15.00;;;32.40;61.90;;;;;;5117712;28;20457;-58
2021/06/16 09:04:58;;;;;;;16.87;15.70;;;32.60;60.90;;;;;;5109457;28;20513;-57
2021/06/16 09:07:31;;;;;;;17.17;15.90;;;34.30;57.70;;;;;;5116814;28;20453;-57
2021/06/16 09:10:12;;;;;;;16.43;15.00;;;35.90;54.00;;;;;;5111094;28;20736;-55
2021/06/16 09:12:55;;;;;;;15.70;14.50;;;35.60;53.80;;;;;;5106858;28;20603;-56
2021/06/16 09:15:30;;;;;;;16.20;14.93;;;35.20;54.60;;;;;;5117715;28;20480;-56
2021/06/16 09:18:07;;;;;;;16.27;14.70;;;36.00;53.60;;;;;;5123610;27;20709;-56
2021/06/16 09:20:43;;;;;;;15.50;14.50;;;37.20;51.60;;;;;;5109096;27;20465;-55
2021/06/16 09:23:14;;;;;;;16.43;15.20;;;37.60;49.90;;;;;;5124410;27;20463;-57
2021/06/16 09:25:43;;;;;;;15.67;14.57;;;36.20;51.50;;;;;;5123750;27;20434;-56
2021/06/16 09:28:11;;;;;;;15.33;14.23;;;35.20;53.70;;;;;;5122563;27;20480;-56
2021/06/16 09:30:42;;;;;;;15.23;14.03;;;34.60;54.70;;;;;;5119285;27;20441;-57
2021/06/16 09:33:16;;;;;;;14.70;13.70;;;34.30;55.20;;;;;;5105807;27;20438;-56
2021/06/16 09:35:48;;;;;;;14.80;13.60;;;34.70;55.20;;;;;;5119486;27;20459;-56
2021/06/16 09:38:24;;;;;;;13.97;12.97;;;33.10;58.30;;;;;;5115004;27;20677;-58
2021/06/16 09:40:52;;;;;;;15.47;14.30;;;31.00;61.90;;;;;;5105334;27;20442;-54
2021/06/16 09:43:21;;;;;;;15.70;14.40;;;30.10;65.60;;;;;;5114124;28;20442;-57
2021/06/16 09:46:02;;;;;;;14.43;13.13;;;30.00;65.80;;;;;;5123768;27;20745;-56
2021/06/16 09:48:43;;;;;;;15.50;14.10;;;30.10;66.70;;;;;;5124214;27;20444;-60
2021/06/16 09:51:23;;;;;;;14.70;13.80;;;30.30;67.50;;;;;;5121969;27;20752;-56
2021/06/16 09:54:13;;;;;;;15.17;13.57;;;30.40;66.10;;;;;;5121069;27;20497;-56
2021/06/16 09:56:53;;;;;;;14.93;13.67;;;30.50;67.10;;;;;;5112810;27;20476;-56
2021/06/16 09:59:42;;;;;;;13.27;12.30;;;30.80;66.00;;;;;;5123387;27;20594;-55
2021/06/16 10:02:18;;;;;;;14.60;13.40;;;30.90;65.90;;;;;;5121423;28;20760;-58
2021/06/16 10:04:51;;;;;;;14.33;13.20;;;31.20;66.30;;;;;;5121580;27;20439;-57
2021/06/16 10:07:20;;;;;;;15.03;13.63;;;31.00;66.20;;;;;;5121829;27;20618;-56
2021/06/16 10:10:05;;;;;;;16.80;15.50;;;30.40;67.90;;;;;;5121873;27;20434;-57
2021/06/16 10:12:40;;;;;;;16.57;15.37;;;30.10;68.40;;;;;;5111488;28;20433;-58
2021/06/16 10:15:13;;;;;;;16.20;14.50;;;29.30;71.50;;;;;;5107391;27;20442;-54
2021/06/16 10:17:43;;;;;;;16.40;15.00;;;29.30;72.50;;;;;;5122370;27;20531;-55
2021/06/16 10:20:11;;;;;;;14.40;13.30;;;28.60;73.40;;;;;;5108488;27;20528;-56
2021/06/16 10:22:39;;;;;;;16.30;15.20;;;28.70;74.40;;;;;;5122932;27;20437;-56
2021/06/16 10:25:09;;;;;;;16.83;15.43;;;28.50;74.30;;;;;;5108595;28;20503;-56
2021/06/16 10:27:46;;;;;;;15.93;14.77;;;28.40;74.90;;;;;;5101748;27;20828;-57
2021/06/16 10:30:16;;;;;;;14.90;13.73;;;28.40;75.10;;;;;;5099402;28;20442;-56
2021/06/16 10:32:46;;;;;;;15.60;14.20;;;28.60;73.50;;;;;;5105926;28;20513;-56
2021/06/16 10:35:40;;;;;;;14.20;13.10;;;29.00;73.10;;;;;;5119157;28;20649;-57
2021/06/16 10:38:13;;;;;;;15.40;14.10;;;29.30;72.90;;;;;;5108535;28;20485;-58
2021/06/16 10:40:45;;;;;;;14.97;13.80;;;30.70;72.70;;;;;;5118268;28;20449;-58
2021/06/16 10:43:16;;;;;;;14.93;13.73;;;29.40;71.60;;;;;;5112326;28;20446;-57
2021/06/16 10:45:53;;;;;;;14.50;13.10;;;29.10;73.30;;;;;;5116808;27;20655;-55
2021/06/16 10:48:21;;;;;;;15.33;13.93;;;29.00;74.30;;;;;;5118722;28;20441;-58
2021/06/16 10:50:51;;;;;;;13.87;12.57;;;28.80;74.00;;;;;;5119615;28;20652;-59
2021/06/16 10:53:24;;;;;;;15.33;13.90;;;28.40;75.30;;;;;;5119866;28;20449;-55
2021/06/16 10:55:52;;;;;;;15.03;13.73;;;28.10;77.00;;;;;;5119147;27;20497;-57
2021/06/16 10:58:22;;;;;;;14.17;13.13;;;28.00;76.40;;;;;;5117667;28;20477;-55
2021/06/16 11:01:07;;;;;;;13.87;12.87;;;28.20;76.50;;;;;;5116209;28;20442;-57
2021/06/16 11:03:50;;;;;;;13.80;12.60;;;28.40;76.50;;;;;;5108171;28;20434;-57
2021/06/16 11:06:33;;;;;;;13.40;12.20;;;27.80;78.30;;;;;;5114195;28;20775;-57
2021/06/16 11:09:03;;;;;;;14.67;13.47;;;28.00;79.60;;;;;;5117428;28;20511;-57
2021/06/16 11:11:53;;;;;;;14.40;13.10;;;29.00;80.50;;;;;;5118420;28;20490;-58
2021/06/16 11:14:35;;;;;;;13.37;12.20;;;28.10;78.70;;;;;;5108594;28;20506;-57
2021/06/16 11:17:10;;;;;;;13.50;12.30;;;28.10;78.10;;;;;;5103195;28;20489;-59
2021/06/16 11:19:41;;;;;;;14.17;12.93;;;28.30;78.30;;;;;;5107051;28;20631;-58
2021/06/16 11:22:14;;;;;;;13.40;12.30;;;28.30;75.40;;;;;;5115307;27;20648;-58
2021/06/16 11:25:03;;;;;;;12.70;11.80;;;28.60;76.40;;;;;;5099818;28;20461;-55
2021/06/16 11:28:09;;;;;;;14.77;13.40;;;28.90;75.80;;;;;;5105433;28;20438;-58
2021/06/16 11:31:01;;;;;;;13.90;12.73;;;28.90;75.90;;;;;;5103591;28;20434;-54
2021/06/16 11:33:44;;;;;;;14.27;12.87;;;28.60;76.10;;;;;;5118578;28;20441;-58
2021/06/16 11:36:35;;;;;;;14.37;13.30;;;28.50;76.80;;;;;;5115942;27;20493;-56
2021/06/16 11:39:07;;;;;;;12.93;11.93;;;28.80;76.10;;;;;;5113733;28;20497;-58
2021/06/16 11:41:42;;;;;;;13.70;12.57;;;28.70;76.80;;;;;;5117523;28;20580;-57
2021/06/16 11:44:11;;;;;;;13.20;12.20;;;28.70;75.80;;;;;;5117003;28;20716;-58
2021/06/16 11:46:42;;;;;;;14.80;13.30;;;28.40;77.40;;;;;;5109118;28;20439;-56
2021/06/16 11:49:20;;;;;;;12.73;11.47;;;28.20;76.60;;;;;;5113521;28;20418;-58
2021/06/16 11:51:51;;;;;;;12.60;11.43;;;28.20;74.50;;;;;;5110647;28;20441;-57
2021/06/16 11:54:24;;;;;;;13.00;12.07;;;28.40;75.00;;;;;;5114547;28;20460;-57
2021/06/16 11:57:09;;;;;;;13.00;11.97;;;28.20;73.70;;;;;;5115980;28;20448;-57
2021/06/16 11:59:50;;;;;;;14.40;13.17;;;28.50;74.70;;;;;;5113036;28;20493;-56
2021/06/16 12:02:28;;;;;;;14.77;13.53;;;28.40;73.60;;;;;;5118593;28;20851;-57
2021/06/16 12:05:12;;;;;;;11.97;11.17;;;28.10;74.50;;;;;;5117973;28;20409;-56
2021/06/16 12:07:44;;;;;;;13.73;12.63;;;28.30;75.30;;;;;;5111488;28;20417;-57
2021/06/16 12:10:25;;;;;;;14.20;13.00;;;28.80;72.20;;;;;;5111123;28;20445;-58
2021/06/16 12:13:02;;;;;;;12.53;11.50;;;29.00;72.60;;;;;;5108356;28;20471;-59
2021/06/16 12:15:36;;;;;;;13.13;12.13;;;29.10;71.70;;;;;;5116434;28;20488;-57
2021/06/16 12:18:11;;;;;;;14.17;13.07;;;29.70;69.90;;;;;;5106181;28;20587;-58
2021/06/16 12:20:54;;;;;;;13.13;12.00;;;29.50;70.10;;;;;;5101655;28;20460;-57
2021/06/16 12:23:39;;;;;;;12.93;11.93;;;29.20;71.20;;;;;;5117463;28;20438;-57
2021/06/16 12:26:17;;;;;;;13.13;12.13;;;29.00;71.70;;;;;;5098437;28;20530;-58
2021/06/16 12:28:54;;;;;;;12.60;11.60;;;28.70;73.30;;;;;;5096717;28;20438;-57
2021/06/16 12:31:30;;;;;;;13.07;11.93;;;28.40;73.10;;;;;;5109830;28;20445;-57
2021/06/16 12:36:34;;;;;;;13.57;12.30;;;27.80;73.70;;;;;;5114898;28;20416;-55
2021/06/16 12:39:17;;;;;;;15.20;14.07;;;27.80;74.60;;;;;;5114677;28;20484;-58
2021/06/16 12:41:47;;;;;;;13.10;11.73;;;27.90;75.00;;;;;;5110833;28;20978;-58
2021/06/16 12:44:23;;;;;;;12.27;11.47;;;28.00;75.20;;;;;;5116498;28;20444;-57
2021/06/16 12:47:23;;;;;;;12.27;11.23;;;28.10;74.90;;;;;;5113493;28;20539;-56
2021/06/16 12:49:53;;;;;;;12.80;11.90;;;28.50;74.60;;;;;;5115083;28;20494;-57